createdAt,value
2023-01-31T00:00:00.517Z,95.93
2023-01-31T00:02:27.262Z,92.97
2023-01-31T00:04:55.272Z,94.69
2023-01-31T00:07:22.111Z,100.00
2023-01-31T00:10:09.323Z,100.00
2023-01-31T00:12:57.018Z,100.00
2023-01-31T00:15:29.577Z,100.00
2023-01-31T00:17:56.347Z,100.00
2023-01-31T00:20:43.208Z,100.00
2023-01-31T00:23:10.351Z,98.61
2023-01-31T00:25:37.669Z,100.00
2023-01-31T00:28:04.932Z,96.98
2023-01-31T00:30:31.710Z,95.86
2023-01-31T00:32:58.890Z,97.48
2023-01-31T00:35:25.780Z,97.37
2023-01-31T00:37:52.483Z,92.59
2023-01-31T00:40:19.241Z,91.55
2023-01-31T00:42:46.104Z,93.02
2023-01-31T00:45:12.937Z,94.99
2023-01-31T00:47:39.728Z,93.44
2023-01-31T00:50:06.708Z,94.93
2023-01-31T00:52:42.539Z,93.74
2023-01-31T00:55:09.596Z,91.67
2023-01-31T00:57:36.651Z,90.78
2023-01-31T01:00:04.241Z,87.38
2023-01-31T01:02:30.993Z,86.28
2023-01-31T01:04:57.713Z,82.70
2023-01-31T01:07:24.367Z,82.99
2023-01-31T01:09:53.055Z,81.33
2023-01-31T01:12:19.703Z,79.97
2023-01-31T01:14:46.655Z,79.31
2023-01-31T01:17:17.930Z,78.96
2023-01-31T01:19:44.697Z,77.99
2023-01-31T01:22:16.284Z,77.23
2023-01-31T01:24:45.933Z,77.21
2023-01-31T01:27:13.421Z,74.95
2023-01-31T01:29:40.367Z,75.76
2023-01-31T01:32:07.979Z,75.82
2023-01-31T01:37:25.481Z,75.55
2023-01-31T01:39:52.954Z,73.27
2023-01-31T01:42:26.951Z,73.62
2023-01-31T01:44:55.418Z,74.51
2023-01-31T01:47:25.425Z,73.65
2023-01-31T01:50:01.180Z,73.21
2023-01-31T01:52:29.761Z,73.87
2023-01-31T01:54:58.840Z,72.74
2023-01-31T01:57:31.362Z,73.64
2023-01-31T02:00:09.880Z,72.49
2023-01-31T02:02:37.376Z,71.96
2023-01-31T02:05:04.663Z,72.48
2023-01-31T02:07:31.472Z,70.95
2023-01-31T02:10:20.980Z,72.29
2023-01-31T02:12:47.800Z,73.05
2023-01-31T02:15:14.758Z,73.82
2023-01-31T02:17:41.603Z,72.86
2023-01-31T02:20:47.104Z,73.56
2023-01-31T02:23:26.128Z,72.72
2023-01-31T02:26:11.315Z,72.18
2023-01-31T02:28:44.248Z,72.78
2023-01-31T02:31:14.132Z,70.54
2023-01-31T02:33:47.046Z,71.80
2023-01-31T02:36:19.856Z,71.80
2023-01-31T02:38:56.592Z,72.31
2023-01-31T02:41:26.310Z,74.81
2023-01-31T02:44:33.120Z,71.79
2023-01-31T02:47:03.202Z,72.68
2023-01-31T02:49:36.664Z,73.08
2023-01-31T02:52:16.476Z,72.50
2023-01-31T02:55:10.619Z,73.09
2023-01-31T02:57:38.784Z,71.75
2023-01-31T03:00:07.071Z,71.34
2023-01-31T03:02:33.909Z,71.41
2023-01-31T03:05:00.684Z,72.60
2023-01-31T03:07:31.709Z,71.54
2023-01-31T03:10:17.321Z,73.26
2023-01-31T03:13:02.700Z,74.12
2023-01-31T03:15:55.208Z,73.02
2023-01-31T03:18:24.816Z,73.65
2023-01-31T03:21:17.639Z,73.05
2023-01-31T03:23:45.901Z,71.86
2023-01-31T03:26:13.394Z,73.28
2023-01-31T03:28:42.488Z,72.55
2023-01-31T03:31:14.624Z,73.72
2023-01-31T03:33:44.287Z,72.93
2023-01-31T03:36:10.989Z,72.30
2023-01-31T03:38:43.247Z,72.21
2023-01-31T03:41:45.630Z,74.52
2023-01-31T03:44:24.531Z,72.82
2023-01-31T03:46:53.381Z,74.21
2023-01-31T03:49:21.983Z,73.20
2023-01-31T03:51:51.412Z,74.12
2023-01-31T03:54:20.680Z,74.20
2023-01-31T03:57:23.171Z,74.04
2023-01-31T03:59:54.317Z,74.02
2023-01-31T04:02:23.785Z,73.23
2023-01-31T04:05:03.924Z,73.20
2023-01-31T04:07:30.690Z,72.69
2023-01-31T04:09:57.438Z,72.60
2023-01-31T04:12:24.419Z,72.62
2023-01-31T04:14:51.098Z,73.55
2023-01-31T04:17:17.799Z,71.62
2023-01-31T04:19:44.593Z,70.20
2023-01-31T04:22:11.735Z,69.97
2023-01-31T04:24:38.482Z,70.67
2023-01-31T04:27:05.343Z,70.68
2023-01-31T04:29:32.143Z,70.44
2023-01-31T04:32:07.854Z,69.69
2023-01-31T04:34:34.683Z,68.87
2023-01-31T04:37:01.399Z,69.42
2023-01-31T04:39:28.192Z,69.80
2023-01-31T04:41:58.090Z,68.96
2023-01-31T04:44:24.890Z,68.51
2023-01-31T04:46:51.675Z,68.50
2023-01-31T04:49:18.440Z,70.41
2023-01-31T04:51:45.152Z,69.63
2023-01-31T04:54:11.957Z,70.83
2023-01-31T04:56:38.678Z,71.12
2023-01-31T04:59:05.376Z,71.39
2023-01-31T05:01:32.786Z,70.08
2023-01-31T05:03:59.563Z,70.80
2023-01-31T05:06:26.442Z,70.35
2023-01-31T05:08:56.051Z,70.29
2023-01-31T05:11:22.763Z,71.12
2023-01-31T05:13:49.814Z,73.17
2023-01-31T05:16:16.680Z,73.80
2023-01-31T05:18:43.451Z,73.90
2023-01-31T05:21:10.659Z,73.52
2023-01-31T05:23:37.524Z,74.30
2023-01-31T05:26:04.856Z,73.17
2023-01-31T05:28:31.609Z,72.68
2023-01-31T05:31:02.988Z,71.34
2023-01-31T05:33:32.653Z,71.01
2023-01-31T05:35:59.720Z,70.84
2023-01-31T05:38:26.777Z,70.06
2023-01-31T05:40:53.530Z,71.22
2023-01-31T05:43:20.288Z,70.31
2023-01-31T05:45:48.206Z,69.69
2023-01-31T05:48:14.987Z,69.74
2023-01-31T05:50:41.700Z,69.51
2023-01-31T05:53:09.598Z,69.54
2023-01-31T05:55:36.311Z,70.01
2023-01-31T05:58:03.523Z,70.41
2023-01-31T06:00:31.006Z,69.74
2023-01-31T06:02:58.866Z,69.00
2023-01-31T06:05:25.764Z,68.75
2023-01-31T06:07:52.511Z,68.96
2023-01-31T06:10:21.038Z,70.86
2023-01-31T06:12:47.979Z,70.09
2023-01-31T06:15:14.874Z,74.11
2023-01-31T06:17:41.581Z,75.45
2023-01-31T06:20:08.746Z,71.20
2023-01-31T06:22:35.486Z,70.18
2023-01-31T06:25:02.177Z,70.72
2023-01-31T06:27:31.908Z,70.45
2023-01-31T06:29:59.272Z,69.70
2023-01-31T06:32:26.081Z,70.51
2023-01-31T06:34:52.785Z,70.44
2023-01-31T06:37:19.527Z,70.03
2023-01-31T06:39:46.231Z,70.13
2023-01-31T06:42:13.069Z,69.70
2023-01-31T06:44:39.951Z,69.08
2023-01-31T06:47:06.723Z,69.08
2023-01-31T06:49:33.494Z,69.39
2023-01-31T06:52:00.256Z,68.59
2023-01-31T06:54:27.076Z,68.84
2023-01-31T06:56:53.888Z,69.00
2023-01-31T06:59:20.648Z,69.42
2023-01-31T07:01:48.653Z,69.41
2023-01-31T07:04:15.745Z,67.99
2023-01-31T07:06:42.694Z,67.30
2023-01-31T07:09:09.644Z,66.87
2023-01-31T07:11:37.689Z,67.39
2023-01-31T07:14:04.727Z,67.34
2023-01-31T07:16:32.281Z,67.77
2023-01-31T07:19:01.101Z,66.31
2023-01-31T07:21:30.249Z,63.42
2023-01-31T07:23:57.163Z,60.51
2023-01-31T07:26:24.052Z,57.41
2023-01-31T07:28:57.540Z,55.66
2023-01-31T07:31:24.445Z,54.78
2023-01-31T07:33:51.293Z,56.14
2023-01-31T07:36:21.822Z,55.79
2023-01-31T07:38:48.657Z,56.37
2023-01-31T07:41:16.110Z,55.71
2023-01-31T07:43:42.978Z,58.29
2023-01-31T07:46:11.252Z,60.44
2023-01-31T07:48:38.447Z,62.30
2023-01-31T07:51:06.043Z,62.20
2023-01-31T07:53:34.345Z,64.44
2023-01-31T07:56:12.140Z,65.33
2023-01-31T07:58:39.200Z,66.55
2023-01-31T08:01:24.648Z,66.24
2023-01-31T08:03:51.600Z,69.31
2023-01-31T08:06:18.511Z,69.59
2023-01-31T08:08:46.140Z,67.56
2023-01-31T08:11:13.286Z,67.85
2023-01-31T08:13:40.422Z,66.94
2023-01-31T08:16:09.421Z,67.00
2023-01-31T08:18:37.051Z,66.57
2023-01-31T08:21:07.406Z,66.07
2023-01-31T08:23:34.999Z,66.20
2023-01-31T08:26:06.104Z,64.49
2023-01-31T08:28:33.321Z,63.16
2023-01-31T08:31:08.629Z,64.43
2023-01-31T08:33:37.121Z,64.29
2023-01-31T08:36:15.174Z,63.63
2023-01-31T08:38:42.993Z,62.99
2023-01-31T08:41:12.896Z,65.63
2023-01-31T08:43:54.393Z,67.90
2023-01-31T08:46:24.268Z,66.60
2023-01-31T08:48:52.287Z,69.73
2023-01-31T08:51:19.380Z,68.59
2023-01-31T08:53:46.314Z,68.78
2023-01-31T08:56:13.977Z,66.79
2023-01-31T08:58:42.149Z,65.46
2023-01-31T09:01:10.489Z,66.13
2023-01-31T09:03:37.511Z,64.59
2023-01-31T09:06:06.331Z,64.10
2023-01-31T09:08:33.248Z,66.51
2023-01-31T09:11:03.261Z,67.57
2023-01-31T09:13:31.255Z,66.35
2023-01-31T09:16:02.593Z,66.61
2023-01-31T09:18:30.105Z,66.41
2023-01-31T09:20:56.980Z,64.87
2023-01-31T09:23:24.089Z,64.23
2023-01-31T09:25:56.654Z,63.32
2023-01-31T09:28:24.124Z,61.86
2023-01-31T09:30:53.711Z,61.20
2023-01-31T09:33:21.249Z,59.41
2023-01-31T09:36:01.538Z,60.30
2023-01-31T09:38:29.596Z,61.44
2023-01-31T09:41:00.924Z,59.46
2023-01-31T09:43:30.988Z,59.12
2023-01-31T09:46:00.694Z,58.34
2023-01-31T09:48:29.600Z,57.62
2023-01-31T09:50:58.983Z,58.15
2023-01-31T09:53:29.503Z,58.74
2023-01-31T09:56:07.650Z,58.85
2023-01-31T09:58:56.196Z,63.74
2023-01-31T10:01:40.209Z,62.41
2023-01-31T10:04:10.145Z,61.46
2023-01-31T10:06:42.890Z,61.59
2023-01-31T10:09:18.946Z,61.90
2023-01-31T10:11:58.328Z,61.51
2023-01-31T10:14:43.550Z,60.19
2023-01-31T10:17:14.423Z,59.74
2023-01-31T10:20:07.590Z,60.33
2023-01-31T10:22:51.341Z,61.08
2023-01-31T10:25:29.178Z,59.33
2023-01-31T10:27:57.668Z,59.58
2023-01-31T10:30:27.001Z,57.93
2023-01-31T10:32:59.422Z,56.07
2023-01-31T10:35:31.942Z,55.94
2023-01-31T10:38:04.991Z,56.26
2023-01-31T10:40:39.156Z,54.82
2023-01-31T10:43:26.582Z,56.78
2023-01-31T10:45:53.408Z,57.03
2023-01-31T10:48:29.077Z,58.16
2023-01-31T10:51:14.853Z,58.44
2023-01-31T10:53:51.096Z,58.35
2023-01-31T10:56:17.832Z,56.74
2023-01-31T10:58:44.670Z,57.93
2023-01-31T11:01:16.726Z,57.80
2023-01-31T11:03:49.879Z,58.12
2023-01-31T11:06:16.979Z,56.07
2023-01-31T11:08:48.547Z,55.35
2023-01-31T11:11:17.451Z,56.03
2023-01-31T11:13:59.758Z,55.63
2023-01-31T11:16:36.571Z,57.01
2023-01-31T11:19:05.116Z,54.96
2023-01-31T11:21:34.431Z,55.54
2023-01-31T11:24:15.921Z,55.73
2023-01-31T11:26:50.984Z,54.76
2023-01-31T11:29:21.229Z,55.07
2023-01-31T11:31:50.364Z,54.26
2023-01-31T11:34:25.045Z,54.19
2023-01-31T11:36:54.342Z,54.08
2023-01-31T11:39:27.379Z,51.06
2023-01-31T11:41:56.561Z,51.19
2023-01-31T11:44:24.069Z,48.57
2023-01-31T11:46:56.136Z,48.67
2023-01-31T11:49:22.954Z,47.37
2023-01-31T11:51:50.501Z,47.55
2023-01-31T11:54:29.711Z,47.01
2023-01-31T11:56:56.695Z,47.06
2023-01-31T11:59:27.102Z,48.04
2023-01-31T12:01:55.752Z,47.52
2023-01-31T12:04:26.458Z,47.49
2023-01-31T12:06:57.941Z,48.42
2023-01-31T12:09:26.197Z,48.55
2023-01-31T12:11:57.113Z,48.26
2023-01-31T12:14:30.083Z,46.81
2023-01-31T12:16:57.043Z,47.28
2023-01-31T12:19:30.853Z,46.43
2023-01-31T12:22:18.785Z,46.20
2023-01-31T12:25:04.392Z,46.37
2023-01-31T12:27:49.582Z,45.37
2023-01-31T12:30:24.430Z,45.96
2023-01-31T12:33:00.172Z,45.92
2023-01-31T12:35:34.119Z,44.96
2023-01-31T12:38:19.331Z,45.01
2023-01-31T12:41:06.873Z,45.26
2023-01-31T12:43:45.922Z,44.58
2023-01-31T12:46:31.127Z,45.93
2023-01-31T12:49:20.738Z,46.11
2023-01-31T12:51:59.711Z,45.31
2023-01-31T12:54:28.581Z,45.58
2023-01-31T12:57:17.525Z,45.33
2023-01-31T12:59:53.426Z,45.07
2023-01-31T13:02:35.737Z,45.57
2023-01-31T13:05:09.050Z,45.82
2023-01-31T13:07:35.796Z,46.96
2023-01-31T13:10:05.386Z,46.04
2023-01-31T13:12:35.504Z,46.11
2023-01-31T13:15:16.504Z,46.16
2023-01-31T13:17:43.947Z,45.17
2023-01-31T13:20:36.104Z,45.11
2023-01-31T13:23:13.673Z,45.19
2023-01-31T13:25:58.059Z,46.76
2023-01-31T13:28:34.990Z,45.93
2023-01-31T13:31:06.131Z,46.52
2023-01-31T13:33:36.871Z,45.49
2023-01-31T13:36:08.954Z,46.70
2023-01-31T13:38:43.124Z,46.75
2023-01-31T13:41:14.403Z,47.56
2023-01-31T13:43:41.209Z,47.91
2023-01-31T13:46:09.996Z,47.70
2023-01-31T13:48:40.184Z,46.75
2023-01-31T13:51:20.492Z,46.27
2023-01-31T13:53:53.611Z,46.84
2023-01-31T13:56:23.445Z,46.38
2023-01-31T13:58:55.692Z,46.52
2023-01-31T14:01:26.801Z,47.67
2023-01-31T14:04:18.299Z,48.94
2023-01-31T14:06:57.548Z,50.05
2023-01-31T14:09:26.910Z,49.74
2023-01-31T14:11:55.869Z,49.90
2023-01-31T14:14:37.976Z,48.74
2023-01-31T14:17:14.319Z,49.11
2023-01-31T14:19:44.421Z,49.15
2023-01-31T14:22:20.741Z,49.07
2023-01-31T14:24:47.564Z,49.30
2023-01-31T14:27:17.905Z,49.54
2023-01-31T14:29:45.280Z,49.61
2023-01-31T14:32:35.190Z,49.46
2023-01-31T14:35:19.413Z,49.25
2023-01-31T14:37:58.210Z,50.31
2023-01-31T14:40:34.538Z,49.67
2023-01-31T14:43:13.623Z,49.46
2023-01-31T14:45:52.839Z,49.10
2023-01-31T14:48:39.166Z,49.07
2023-01-31T14:51:32.739Z,49.28
2023-01-31T14:53:59.555Z,48.94
2023-01-31T14:56:27.899Z,48.03
2023-01-31T14:58:57.015Z,48.14
2023-01-31T15:01:31.752Z,47.41
2023-01-31T15:03:59.509Z,48.39
2023-01-31T15:06:28.295Z,48.37
2023-01-31T15:09:15.213Z,47.91
2023-01-31T15:11:46.756Z,48.38
2023-01-31T15:14:33.462Z,48.72
2023-01-31T15:17:17.321Z,49.62
2023-01-31T15:19:57.782Z,49.04
2023-01-31T15:22:25.868Z,49.52
2023-01-31T15:24:57.294Z,49.41
2023-01-31T15:27:26.003Z,50.32
2023-01-31T15:29:58.594Z,49.07
2023-01-31T15:32:28.312Z,49.26
2023-01-31T15:34:59.454Z,50.28
2023-01-31T15:37:30.660Z,49.75
2023-01-31T15:40:17.652Z,49.41
2023-01-31T15:42:46.405Z,50.26
2023-01-31T15:45:26.690Z,50.39
2023-01-31T15:47:56.235Z,49.97
2023-01-31T15:50:23.175Z,50.02
2023-01-31T15:52:52.172Z,51.21
2023-01-31T15:55:19.825Z,50.35
2023-01-31T15:57:58.125Z,49.23
2023-01-31T16:00:30.033Z,48.92
2023-01-31T16:03:04.751Z,48.34
2023-01-31T16:05:32.937Z,48.62
2023-01-31T16:08:04.463Z,48.34
2023-01-31T16:10:31.796Z,47.71
2023-01-31T16:12:59.560Z,48.16
2023-01-31T16:15:30.842Z,48.79
2023-01-31T16:17:58.654Z,49.26
2023-01-31T16:20:44.636Z,50.60
2023-01-31T16:23:25.198Z,49.89
2023-01-31T16:26:10.509Z,49.44
2023-01-31T16:28:38.831Z,50.34
2023-01-31T16:31:08.163Z,50.98
2023-01-31T16:33:37.533Z,51.10
2023-01-31T16:36:13.550Z,50.40
2023-01-31T16:38:43.498Z,50.50
2023-01-31T16:41:13.184Z,51.39
2023-01-31T16:43:41.820Z,51.66
2023-01-31T16:46:37.470Z,51.14
2023-01-31T16:49:06.176Z,51.20
2023-01-31T16:51:45.491Z,51.21
2023-01-31T16:54:17.155Z,51.00
2023-01-31T16:56:48.090Z,51.61
2023-01-31T16:59:33.606Z,51.56
2023-01-31T17:02:02.854Z,50.86
2023-01-31T17:04:29.557Z,50.68
2023-01-31T17:07:03.781Z,50.77
2023-01-31T17:09:30.644Z,50.73
2023-01-31T17:11:57.501Z,50.68
2023-01-31T17:14:24.610Z,51.94
2023-01-31T17:16:54.502Z,51.26
2023-01-31T17:19:21.458Z,51.05
2023-01-31T17:21:50.364Z,51.70
2023-01-31T17:24:18.739Z,53.36
2023-01-31T17:26:45.947Z,54.23
2023-01-31T17:29:12.743Z,53.73
2023-01-31T17:31:39.679Z,53.04
2023-01-31T17:34:11.801Z,53.08
2023-01-31T17:36:38.501Z,53.78
2023-01-31T17:39:05.265Z,53.64
2023-01-31T17:41:33.894Z,53.52
2023-01-31T17:44:08.320Z,53.92
2023-01-31T17:46:36.144Z,54.11
2023-01-31T17:49:02.950Z,53.25
2023-01-31T17:51:29.711Z,54.15
2023-01-31T17:53:56.473Z,57.21
2023-01-31T17:56:23.238Z,58.62
2023-01-31T17:58:50.339Z,57.96
2023-01-31T18:01:17.192Z,59.64
2023-01-31T18:03:43.989Z,57.90
2023-01-31T18:06:12.843Z,59.79
2023-01-31T18:08:39.619Z,58.96
2023-01-31T18:11:10.041Z,59.24
2023-01-31T18:13:38.289Z,59.08
2023-01-31T18:16:05.973Z,58.69
2023-01-31T18:18:32.854Z,57.42
2023-01-31T18:21:01.831Z,57.19
2023-01-31T18:23:28.757Z,58.95
2023-01-31T18:25:57.496Z,62.44
2023-01-31T18:28:24.367Z,62.29
2023-01-31T18:30:51.616Z,60.46
2023-01-31T18:33:18.392Z,59.89
2023-01-31T18:35:45.133Z,59.86
2023-01-31T18:38:13.676Z,59.72
2023-01-31T18:40:40.364Z,59.04
2023-01-31T18:43:07.060Z,59.06
2023-01-31T18:45:33.779Z,60.48
2023-01-31T18:48:00.512Z,59.65
2023-01-31T18:50:27.625Z,59.70
2023-01-31T18:52:55.036Z,59.50
2023-01-31T18:55:22.056Z,59.26
2023-01-31T18:57:49.038Z,58.71
2023-01-31T19:00:16.160Z,62.45
2023-01-31T19:02:42.926Z,61.44
2023-01-31T19:05:09.709Z,61.19
2023-01-31T19:07:36.522Z,62.44
2023-01-31T19:10:04.258Z,64.27
2023-01-31T19:12:31.035Z,62.05
2023-01-31T19:14:57.759Z,60.94
2023-01-31T19:17:24.587Z,61.09
2023-01-31T19:19:51.422Z,62.40
2023-01-31T19:22:18.180Z,61.64
2023-01-31T19:24:44.961Z,61.88
2023-01-31T19:27:11.679Z,61.95
2023-01-31T19:29:39.860Z,62.37
2023-01-31T19:32:06.725Z,61.53
2023-01-31T19:34:33.674Z,63.12
2023-01-31T19:37:00.411Z,62.10
2023-01-31T19:39:27.162Z,61.80
2023-01-31T19:41:53.919Z,62.01
2023-01-31T19:44:21.034Z,61.56
2023-01-31T19:46:52.289Z,64.08
2023-01-31T19:49:19.016Z,64.66
2023-01-31T19:51:45.730Z,64.42
2023-01-31T19:54:16.926Z,64.69
2023-01-31T19:56:44.150Z,64.08
2023-01-31T19:59:12.038Z,62.80
2023-01-31T20:01:38.973Z,62.46
2023-01-31T20:04:05.679Z,63.94
2023-01-31T20:06:33.136Z,63.25
2023-01-31T20:09:00.843Z,62.65
2023-01-31T20:11:28.283Z,61.84
2023-01-31T20:13:55.480Z,62.35
2023-01-31T20:16:22.506Z,65.45
2023-01-31T20:18:51.512Z,67.61
2023-01-31T20:21:19.569Z,65.00
2023-01-31T20:23:46.504Z,64.54
2023-01-31T20:26:14.216Z,64.14
2023-01-31T20:28:41.230Z,63.64
2023-01-31T20:31:09.336Z,64.04
2023-01-31T20:33:36.403Z,64.84
2023-01-31T20:36:03.344Z,64.86
2023-01-31T20:38:31.071Z,65.08
2023-01-31T20:40:57.820Z,66.19
2023-01-31T20:43:25.820Z,65.32
2023-01-31T20:45:53.171Z,64.53
2023-01-31T20:48:20.418Z,64.21
2023-01-31T20:51:05.371Z,63.80
2023-01-31T20:53:32.320Z,63.26
2023-01-31T20:56:01.038Z,62.92
2023-01-31T20:58:28.570Z,68.09
2023-01-31T21:00:56.295Z,65.79
2023-01-31T21:03:23.759Z,63.46
2023-01-31T21:05:50.653Z,64.46
2023-01-31T21:08:17.641Z,65.53
2023-01-31T21:10:48.872Z,65.88
2023-01-31T21:13:15.694Z,66.24
2023-01-31T21:15:46.860Z,70.08
2023-01-31T21:18:13.540Z,70.32
2023-01-31T21:20:40.285Z,69.50
2023-01-31T21:23:07.005Z,68.58
2023-01-31T21:25:33.720Z,67.39
2023-01-31T21:28:00.463Z,67.49
2023-01-31T21:30:27.219Z,70.71
2023-01-31T21:32:53.975Z,67.68
2023-01-31T21:35:20.791Z,68.05
2023-01-31T21:37:50.587Z,67.47
2023-01-31T21:40:17.473Z,66.90
2023-01-31T21:42:44.220Z,66.78
2023-01-31T21:45:11.160Z,65.55
2023-01-31T21:47:56.402Z,65.75
2023-01-31T21:50:23.358Z,65.90
2023-01-31T21:52:50.220Z,66.34
2023-01-31T21:55:17.180Z,65.66
2023-01-31T21:57:44.652Z,65.45
2023-01-31T22:00:12.171Z,66.20
2023-01-31T22:02:38.972Z,69.00
2023-01-31T22:05:05.754Z,70.26
2023-01-31T22:07:32.942Z,67.72
2023-01-31T22:09:59.780Z,67.97
2023-01-31T22:12:26.512Z,67.46
2023-01-31T22:14:53.361Z,67.60
2023-01-31T22:17:20.071Z,67.53
2023-01-31T22:19:46.913Z,67.34
2023-01-31T22:22:14.135Z,67.90
2023-01-31T22:24:40.827Z,67.49
2023-01-31T22:27:07.581Z,66.84
2023-01-31T22:29:34.269Z,66.25
2023-01-31T22:32:01.076Z,66.28
2023-01-31T22:34:27.803Z,65.86
2023-01-31T22:36:54.518Z,66.54
2023-01-31T22:39:21.220Z,66.86
2023-01-31T22:41:47.926Z,66.83
2023-01-31T22:44:14.706Z,66.45
2023-01-31T22:46:41.542Z,66.10
2023-01-31T22:49:08.365Z,67.36
2023-01-31T22:51:35.076Z,66.97
2023-01-31T22:54:01.889Z,66.99
2023-01-31T22:56:30.019Z,66.28
2023-01-31T22:58:57.887Z,66.57
2023-01-31T23:01:26.380Z,66.23
2023-01-31T23:03:56.040Z,66.71
2023-01-31T23:06:22.870Z,68.87
2023-01-31T23:08:49.590Z,67.14
2023-01-31T23:11:17.200Z,66.99
2023-01-31T23:13:44.676Z,66.30
2023-01-31T23:16:16.089Z,66.67
2023-01-31T23:18:42.821Z,69.05
2023-01-31T23:21:11.054Z,71.55
2023-01-31T23:23:37.869Z,70.27
2023-01-31T23:26:05.449Z,69.14
2023-01-31T23:28:32.480Z,67.90
2023-01-31T23:30:59.316Z,68.14
2023-01-31T23:33:26.375Z,67.69
2023-01-31T23:35:53.511Z,68.73
2023-01-31T23:38:20.263Z,68.87
2023-01-31T23:40:50.541Z,68.27
2023-01-31T23:43:17.257Z,70.06
2023-01-31T23:45:43.981Z,74.50
2023-01-31T23:48:10.710Z,74.27
2023-01-31T23:50:37.788Z,73.33
2023-01-31T23:53:04.534Z,73.79
2023-01-31T23:55:31.232Z,73.66
2023-01-31T23:57:58.013Z,74.22
